createdAt,value
2019-06-01T00:02:04.409Z,15.67
2019-06-01T00:04:33.597Z,15.77
2019-06-01T00:07:03.415Z,15.13
2019-06-01T00:09:33.301Z,15.27
2019-06-01T00:12:03.572Z,18.70
2019-06-01T00:14:33.000Z,17.47
2019-06-01T00:17:02.641Z,14.10
2019-06-01T00:19:31.983Z,16.87
2019-06-01T00:22:02.407Z,19.57
2019-06-01T00:24:31.224Z,18.70
2019-06-01T00:27:03.164Z,21.90
2019-06-01T00:29:31.993Z,18.83
2019-06-01T00:32:01.824Z,17.83
2019-06-01T00:34:30.644Z,15.97
2019-06-01T00:37:01.357Z,20.50
2019-06-01T00:39:32.175Z,19.20
2019-06-01T00:42:02.136Z,18.57
2019-06-01T00:44:32.566Z,18.53
2019-06-01T00:47:02.288Z,19.63
2019-06-01T00:49:34.647Z,20.80
2019-06-01T00:52:05.361Z,21.10
2019-06-01T00:54:35.475Z,20.17
2019-06-01T00:57:04.334Z,20.37
2019-06-01T00:59:33.193Z,22.37
2019-06-01T01:02:02.049Z,18.63
2019-06-01T01:04:31.858Z,18.97
2019-06-01T01:07:02.085Z,21.77
2019-06-01T01:09:32.896Z,21.47
2019-06-01T01:12:03.212Z,24.33
2019-06-01T01:14:36.598Z,19.90
2019-06-01T01:17:06.736Z,19.80
2019-06-01T01:19:36.480Z,19.20
2019-06-01T01:22:07.357Z,20.47
2019-06-01T01:24:37.415Z,25.27
2019-06-01T01:27:07.286Z,23.93
2019-06-01T01:29:39.473Z,18.90
2019-06-01T01:32:09.899Z,24.23
2019-06-01T01:34:39.935Z,23.07
2019-06-01T01:37:09.824Z,25.17
2019-06-01T01:39:39.154Z,25.67
2019-06-01T01:42:08.135Z,24.70
2019-06-01T01:44:36.922Z,23.63
2019-06-01T01:47:05.823Z,23.53
2019-06-01T01:49:34.627Z,25.60
2019-06-01T01:52:04.717Z,23.63
2019-06-01T01:54:34.520Z,25.10
2019-06-01T01:57:07.208Z,25.77
2019-06-01T01:59:33.578Z,23.93
2019-06-01T02:02:02.959Z,27.43
2019-06-01T02:04:31.330Z,23.60
2019-06-01T02:07:00.483Z,23.43
2019-06-01T02:09:32.577Z,25.70
2019-06-01T02:12:02.608Z,24.37
2019-06-01T02:14:33.154Z,23.90
2019-06-01T02:17:03.572Z,22.53
2019-06-01T02:19:36.446Z,26.67
2019-06-01T02:22:03.706Z,26.20
2019-06-01T02:24:33.073Z,26.63
2019-06-01T02:27:03.932Z,24.80
2019-06-01T02:29:33.687Z,25.47
2019-06-01T02:32:04.817Z,26.53
2019-06-01T02:34:34.800Z,24.30
2019-06-01T02:37:06.334Z,28.73
2019-06-01T02:39:35.685Z,28.40
2019-06-01T02:42:05.683Z,28.73
2019-06-01T02:44:39.595Z,30.60
2019-06-01T02:47:11.714Z,25.77
2019-06-01T02:49:45.033Z,26.10
2019-06-01T02:52:15.201Z,25.67
2019-06-01T02:54:44.672Z,24.93
2019-06-01T02:57:13.666Z,24.33
2019-06-01T02:59:43.818Z,27.63
2019-06-01T03:02:14.978Z,28.13
2019-06-01T03:04:41.779Z,28.43
2019-06-01T03:07:12.597Z,29.40
2019-06-01T03:09:41.431Z,28.47
2019-06-01T03:12:15.426Z,27.03
2019-06-01T03:14:46.659Z,27.53
2019-06-01T03:17:18.956Z,27.67
2019-06-01T03:19:49.349Z,26.20
2019-06-01T03:22:19.674Z,26.43
2019-06-01T03:24:49.543Z,26.50
2019-06-01T03:27:19.480Z,28.03
2019-06-01T03:29:57.130Z,28.53
2019-06-01T03:32:36.278Z,29.23
2019-06-01T03:34:57.458Z,26.57
2019-06-01T03:37:31.107Z,26.37
2019-06-01T03:40:01.198Z,27.57
2019-06-01T03:42:31.077Z,23.03
2019-06-01T03:45:03.459Z,25.27
2019-06-01T03:47:41.209Z,24.90
2019-06-01T03:50:14.359Z,26.03
2019-06-01T03:52:52.710Z,26.23
2019-06-01T03:55:25.181Z,26.23
2019-06-01T03:58:05.037Z,24.17
2019-06-01T04:00:41.949Z,25.13
2019-06-01T04:03:12.366Z,23.53
2019-06-01T04:05:42.897Z,25.80
2019-06-01T04:08:15.092Z,24.63
2019-06-01T04:10:46.300Z,26.10
2019-06-01T04:13:16.364Z,26.23
2019-06-01T04:15:48.289Z,27.33
2019-06-01T04:18:22.803Z,25.00
2019-06-01T04:20:52.563Z,25.50
2019-06-01T04:23:22.122Z,26.73
2019-06-01T04:25:58.706Z,24.17
2019-06-01T04:28:37.432Z,24.30
2019-06-01T04:31:15.604Z,23.30
2019-06-01T04:33:45.948Z,21.80
2019-06-01T04:36:18.455Z,22.93
2019-06-01T04:39:11.650Z,20.03
2019-06-01T04:42:00.900Z,18.80
2019-06-01T04:45:25.984Z,17.50
2019-06-01T04:48:19.804Z,16.90
2019-06-01T04:50:53.095Z,15.43
2019-06-01T04:54:15.992Z,16.80
2019-06-01T04:56:51.996Z,18.10
2019-06-01T05:03:08.486Z,17.03
2019-06-01T05:05:45.457Z,16.37
2019-06-01T05:08:19.870Z,17.20
2019-06-01T05:10:53.712Z,15.43
2019-06-01T05:13:38.214Z,15.87
2019-06-01T05:16:48.121Z,13.43
2019-06-01T05:36:56.562Z,10.30
2019-06-01T05:39:26.942Z,11.23
2019-06-01T05:41:56.703Z,11.03
2019-06-01T05:44:25.524Z,11.77
2019-06-01T05:46:56.601Z,11.37
2019-06-01T05:49:25.475Z,11.33
2019-06-01T05:51:54.317Z,10.87
2019-06-01T05:54:25.093Z,10.30
2019-06-01T05:56:56.161Z,10.03
2019-06-01T05:59:28.575Z,9.37
2019-06-01T06:02:01.061Z,9.40
2019-06-01T06:04:32.659Z,10.30
2019-06-01T06:07:05.691Z,8.97
2019-06-01T06:09:35.693Z,9.73
2019-06-01T06:12:06.500Z,9.10
2019-06-01T06:14:35.881Z,9.40
2019-06-01T06:17:05.328Z,10.10
2019-06-01T06:19:34.215Z,8.97
2019-06-01T06:22:04.072Z,9.70
2019-06-01T06:24:33.738Z,9.57
2019-06-01T06:27:04.270Z,9.77
2019-06-01T06:29:34.174Z,8.57
2019-06-01T06:32:03.718Z,8.87
2019-06-01T06:34:33.333Z,9.03
2019-06-01T06:37:02.291Z,8.63
2019-06-01T06:39:32.944Z,9.73
2019-06-01T06:42:01.831Z,9.40
2019-06-01T06:44:30.689Z,9.70
2019-06-01T06:47:01.444Z,10.50
2019-06-01T06:49:30.344Z,9.80
2019-06-01T06:51:59.159Z,9.30
2019-06-01T06:54:28.112Z,10.70
2019-06-01T06:56:58.038Z,9.57
2019-06-01T06:59:26.949Z,9.77
2019-06-01T07:01:55.859Z,9.70
2019-06-01T07:04:25.304Z,17.40
2019-06-01T07:06:55.628Z,8.50
2019-06-01T07:09:24.681Z,10.10
2019-06-01T07:11:54.238Z,8.90
2019-06-01T07:14:23.804Z,9.10
2019-06-01T07:16:52.666Z,9.60
2019-06-01T07:19:22.523Z,8.60
2019-06-01T07:21:51.909Z,8.60
2019-06-01T07:24:21.813Z,8.90
2019-06-01T07:26:51.996Z,8.53
2019-06-01T07:29:22.090Z,9.50
2019-06-01T07:31:52.055Z,9.07
2019-06-01T07:34:35.584Z,9.40
2019-06-01T07:36:51.318Z,10.30
2019-06-01T07:39:22.559Z,10.13
2019-06-01T07:41:53.093Z,9.63
2019-06-01T07:44:22.916Z,10.67
2019-06-01T07:46:52.113Z,10.03
2019-06-01T07:49:21.272Z,9.80
2019-06-01T07:51:50.184Z,8.97
2019-06-01T07:54:20.244Z,8.97
2019-06-01T07:56:48.606Z,9.53
2019-06-01T07:59:17.654Z,7.93
2019-06-01T08:01:47.393Z,8.23
2019-06-01T08:04:16.915Z,9.30
2019-06-01T08:06:48.459Z,8.27
2019-06-01T08:09:15.096Z,8.27
2019-06-01T08:11:44.040Z,8.53
2019-06-01T08:14:12.840Z,7.23
2019-06-01T08:16:41.781Z,8.97
2019-06-01T08:19:10.988Z,9.17
2019-06-01T08:21:39.909Z,8.97
2019-06-01T08:24:08.761Z,8.97
2019-06-01T08:26:38.154Z,9.83
2019-06-01T08:29:07.125Z,8.70
2019-06-01T08:31:37.648Z,8.20
2019-06-01T08:34:14.638Z,7.30
2019-06-01T08:36:50.175Z,7.53
2019-06-01T08:39:19.262Z,7.40
2019-06-01T08:41:48.979Z,8.87
2019-06-01T08:44:25.416Z,8.53
2019-06-01T08:46:55.354Z,8.17
2019-06-01T08:49:25.860Z,8.23
2019-06-01T08:51:55.276Z,7.20
2019-06-01T08:54:25.959Z,7.53
2019-06-01T08:56:54.503Z,6.10
2019-06-01T08:59:24.270Z,6.17
2019-06-01T09:01:53.898Z,5.50
2019-06-01T09:04:24.579Z,6.37
2019-06-01T09:06:53.885Z,5.43
2019-06-01T09:09:24.933Z,5.37
2019-06-01T09:11:53.733Z,5.57
2019-06-01T09:14:23.646Z,5.83
2019-06-01T09:16:52.933Z,6.10
2019-06-01T09:19:22.401Z,5.87
2019-06-01T09:21:52.514Z,5.00
2019-06-01T09:24:21.445Z,4.87
2019-06-01T09:26:50.881Z,5.00
2019-06-01T09:29:19.816Z,4.00
2019-06-01T09:31:48.610Z,3.87
2019-06-01T09:34:17.520Z,3.63
2019-06-01T09:36:47.113Z,3.17
2019-06-01T09:39:15.920Z,4.47
2019-06-01T09:41:44.751Z,3.57
2019-06-01T09:44:13.605Z,3.27
2019-06-01T09:46:42.560Z,2.73
2019-06-01T09:49:12.099Z,3.50
2019-06-01T09:51:41.598Z,3.43
2019-06-01T09:54:10.610Z,3.30
2019-06-01T09:56:39.975Z,3.60
2019-06-01T09:59:08.467Z,3.37
2019-06-01T10:01:38.743Z,4.17
2019-06-01T10:04:06.209Z,3.20
2019-06-01T10:06:36.375Z,3.20
2019-06-01T10:09:04.644Z,3.17
2019-06-01T10:11:34.312Z,2.90
2019-06-01T10:14:02.617Z,3.33
2019-06-01T10:16:32.776Z,3.60
2019-06-01T10:19:02.925Z,4.07
2019-06-01T10:21:36.063Z,4.77
2019-06-01T10:24:04.419Z,4.47
2019-06-01T10:26:34.084Z,4.90
2019-06-01T10:29:05.598Z,5.43
2019-06-01T10:31:34.710Z,4.10
2019-06-01T10:34:03.355Z,4.40
2019-06-01T10:36:34.059Z,4.00
2019-06-01T10:39:04.937Z,3.77
2019-06-01T10:41:33.788Z,3.63
2019-06-01T10:44:04.864Z,4.70
2019-06-01T10:46:33.932Z,3.13
2019-06-01T10:49:03.753Z,3.63
2019-06-01T10:51:33.886Z,4.27
2019-06-01T10:54:02.171Z,3.90
2019-06-01T10:56:32.655Z,3.93
2019-06-01T10:59:06.424Z,3.80
2019-06-01T11:01:37.376Z,4.23
2019-06-01T11:04:05.588Z,3.77
2019-06-01T11:06:42.137Z,3.97
2019-06-01T11:09:03.336Z,3.93
2019-06-01T11:11:32.736Z,4.43
2019-06-01T11:14:02.906Z,4.20
2019-06-01T11:16:32.940Z,4.70
2019-06-01T11:19:03.591Z,4.73
2019-06-01T11:21:35.494Z,5.27
2019-06-01T11:24:03.560Z,6.80
2019-06-01T11:26:33.317Z,5.60
2019-06-01T11:29:01.341Z,5.57
2019-06-01T11:31:30.242Z,5.63
2019-06-01T11:34:00.752Z,6.47
2019-06-01T11:36:30.332Z,6.93
2019-06-01T11:38:59.277Z,6.20
2019-06-01T11:41:28.229Z,6.80
2019-06-01T11:43:58.496Z,6.70
2019-06-01T11:46:27.696Z,7.87
2019-06-01T11:49:20.529Z,6.80
2019-06-01T11:53:30.821Z,5.67
2019-06-01T12:10:10.847Z,6.97
2019-06-01T12:12:40.219Z,23.57
2019-06-01T12:15:10.261Z,7.00
2019-06-01T12:17:40.724Z,7.00
2019-06-01T12:20:34.427Z,7.40
2019-06-01T12:34:11.946Z,6.67
2019-06-01T12:36:41.328Z,5.47
2019-06-01T12:39:35.104Z,4.83
2019-06-01T12:42:12.750Z,6.63
2019-06-01T12:48:20.473Z,7.07
2019-06-01T13:07:33.272Z,5.80
2019-06-01T13:10:09.192Z,6.67
2019-06-01T13:12:52.913Z,4.40
2019-06-01T13:15:24.555Z,4.90
2019-06-01T13:21:08.158Z,5.40
2019-06-01T13:24:09.289Z,6.20
2019-06-01T13:26:59.234Z,4.47
2019-06-01T13:29:35.567Z,5.07
2019-06-01T13:32:13.678Z,4.40
2019-06-01T13:34:47.143Z,4.53
2019-06-01T13:37:16.722Z,6.47
2019-06-01T13:39:50.800Z,4.17
2019-06-01T13:42:15.202Z,4.20
2019-06-01T13:44:45.199Z,4.57
2019-06-01T13:47:14.692Z,3.57
2019-06-01T13:49:44.493Z,4.10
2019-06-01T13:52:12.385Z,4.17
2019-06-01T13:54:42.065Z,6.00
2019-06-01T13:57:13.194Z,5.67
2019-06-01T13:59:42.080Z,5.80
2019-06-01T14:02:10.928Z,4.87
2019-06-01T14:04:41.493Z,4.37
2019-06-01T14:07:12.882Z,4.77
2019-06-01T14:09:45.082Z,4.13
2019-06-01T14:12:12.611Z,5.50
2019-06-01T14:14:42.512Z,6.20
2019-06-01T14:17:11.830Z,5.17
2019-06-01T14:19:42.994Z,5.63
2019-06-01T14:22:12.610Z,4.80
2019-06-01T14:24:44.626Z,4.87
2019-06-01T14:27:11.746Z,4.60
2019-06-01T14:29:42.439Z,3.87
2019-06-01T14:32:11.319Z,4.33
2019-06-01T14:34:41.023Z,4.90
2019-06-01T14:37:12.307Z,5.27
2019-06-01T14:39:41.568Z,3.90
2019-06-01T14:42:10.462Z,4.50
2019-06-01T14:44:40.948Z,4.40
2019-06-01T14:47:12.550Z,4.67
2019-06-01T14:49:42.202Z,4.43
2019-06-01T14:54:47.630Z,3.97
2019-06-01T14:57:16.196Z,3.87
2019-06-01T14:59:46.428Z,4.97
2019-06-01T15:02:15.292Z,4.30
2019-06-01T15:04:44.483Z,4.40
2019-06-01T15:07:13.341Z,3.23
2019-06-01T15:09:42.186Z,3.33
2019-06-01T15:12:11.083Z,3.33
2019-06-01T15:14:40.069Z,4.10
2019-06-01T15:17:10.808Z,2.27
2019-06-01T15:19:39.668Z,3.00
2019-06-01T15:22:08.556Z,2.93
2019-06-01T15:24:37.378Z,2.07
2019-06-01T15:27:06.236Z,2.30
2019-06-01T15:29:35.172Z,2.40
2019-06-01T15:32:05.265Z,2.30
2019-06-01T15:34:34.538Z,2.47
2019-06-01T15:37:04.549Z,2.97
2019-06-01T15:39:34.053Z,2.23
2019-06-01T15:42:02.919Z,2.03
2019-06-01T15:44:31.761Z,2.57
2019-06-01T15:47:02.069Z,2.20
2019-06-01T15:49:29.831Z,2.40
2019-06-01T15:51:59.887Z,3.00
2019-06-01T15:54:27.600Z,4.13
2019-06-01T15:56:58.903Z,2.93
2019-06-01T15:59:30.120Z,2.80
2019-06-01T16:01:59.538Z,2.73
2019-06-01T16:04:29.346Z,3.03
2019-06-01T16:06:59.277Z,3.53
2019-06-01T16:09:41.549Z,5.20
2019-06-01T16:11:55.911Z,3.00
2019-06-01T16:14:25.379Z,4.30
2019-06-01T16:16:55.796Z,4.93
2019-06-01T16:19:24.062Z,2.57
2019-06-01T16:21:56.190Z,2.57
2019-06-01T16:24:25.697Z,4.40
2019-06-01T16:26:54.532Z,3.07
2019-06-01T16:29:23.997Z,4.07
2019-06-01T16:32:05.044Z,5.03
2019-06-01T16:34:33.322Z,5.93
2019-06-01T16:37:03.225Z,4.03
2019-06-01T16:39:31.556Z,4.83
2019-06-01T16:42:02.112Z,4.93
2019-06-01T16:44:30.571Z,22.93
2019-06-01T16:46:59.696Z,10.60
2019-06-01T16:49:29.788Z,10.20
2019-06-01T16:51:59.252Z,6.87
2019-06-01T16:54:27.446Z,7.27
2019-06-01T16:56:56.288Z,4.80
2019-06-01T16:59:26.314Z,2.63
2019-06-01T17:01:56.534Z,3.43
2019-06-01T17:04:26.169Z,5.07
2019-06-01T17:06:56.835Z,4.83
2019-06-01T17:09:25.647Z,4.10
2019-06-01T17:11:56.708Z,23.23
2019-06-01T17:14:25.508Z,7.87
2019-06-01T17:16:57.101Z,8.67
2019-06-01T17:19:27.944Z,7.77
2019-06-01T17:21:57.773Z,5.50
2019-06-01T17:24:27.375Z,5.20
2019-06-01T17:26:56.291Z,4.73
2019-06-01T17:29:25.165Z,4.30
2019-06-01T17:31:56.371Z,3.80
2019-06-01T17:34:23.782Z,3.70
2019-06-01T17:36:53.155Z,3.90
2019-06-01T17:39:22.176Z,3.80
2019-06-01T17:41:51.568Z,3.47
2019-06-01T17:44:22.034Z,4.20
2019-06-01T17:46:53.852Z,3.57
2019-06-01T17:49:20.260Z,4.07
2019-06-01T17:51:50.677Z,3.60
2019-06-01T17:54:20.459Z,3.67
2019-06-01T17:56:50.266Z,2.90
2019-06-01T17:59:19.258Z,3.10
2019-06-01T18:01:48.138Z,3.30
2019-06-01T18:04:17.703Z,3.33
2019-06-01T18:06:47.538Z,6.53
2019-06-01T18:09:16.971Z,4.00
2019-06-01T18:11:45.840Z,2.77
2019-06-01T18:14:14.669Z,2.63
2019-06-01T18:16:43.867Z,9.63
2019-06-01T18:19:13.472Z,2.47
2019-06-01T18:21:42.394Z,2.37
2019-06-01T18:24:12.585Z,2.50
2019-06-01T18:26:41.111Z,2.50
2019-06-01T18:29:10.755Z,2.97
2019-06-01T18:31:39.352Z,2.80
2019-06-01T18:34:09.981Z,2.70
2019-06-01T18:36:39.687Z,2.77
2019-06-01T18:39:10.083Z,2.03
2019-06-01T18:41:39.239Z,2.30
2019-06-01T18:44:08.170Z,2.53
2019-06-01T18:46:37.772Z,2.13
2019-06-01T18:49:07.884Z,4.47
2019-06-01T18:51:36.651Z,2.63
2019-06-01T18:54:06.607Z,2.27
2019-06-01T18:56:35.317Z,2.00
2019-06-01T18:59:06.541Z,1.80
2019-06-01T19:01:34.556Z,1.80
2019-06-01T19:04:03.434Z,2.33
2019-06-01T19:06:32.514Z,16.10
2019-06-01T19:09:02.328Z,4.57
2019-06-01T19:11:35.932Z,3.20
2019-06-01T19:14:02.690Z,3.10
2019-06-01T19:16:32.034Z,3.30
2019-06-01T19:19:01.843Z,3.23
2019-06-01T19:21:31.866Z,4.50
2019-06-01T19:24:00.867Z,4.47
2019-06-01T19:26:30.480Z,4.23
2019-06-01T19:29:00.290Z,4.60
2019-06-01T19:31:30.461Z,5.03
2019-06-01T19:34:00.165Z,5.73
2019-06-01T19:36:29.018Z,5.67
2019-06-01T19:38:59.935Z,6.40
2019-06-01T19:41:43.675Z,5.77
2019-06-01T19:44:00.596Z,5.40
2019-06-01T19:46:29.473Z,7.00
2019-06-01T19:49:00.050Z,6.27
2019-06-01T19:51:29.553Z,5.73
2019-06-01T19:53:59.016Z,8.17
2019-06-01T19:56:28.039Z,16.57
2019-06-01T19:58:56.993Z,13.77
2019-06-01T20:01:25.841Z,10.90
2019-06-01T20:03:56.565Z,7.27
2019-06-01T20:06:27.564Z,6.40
2019-06-01T20:08:57.621Z,6.67
2019-06-01T20:11:28.376Z,6.30
2019-06-01T20:13:57.325Z,6.73
2019-06-01T20:16:28.830Z,8.53
2019-06-01T20:19:00.944Z,7.23
2019-06-01T20:21:31.403Z,6.93
2019-06-01T20:24:03.538Z,6.83
2019-06-01T20:26:40.567Z,6.30
2019-06-01T20:29:06.357Z,6.97
2019-06-01T20:31:37.556Z,6.77
2019-06-01T20:34:10.029Z,6.57
2019-06-01T20:36:43.096Z,6.13
2019-06-01T20:39:14.272Z,7.87
2019-06-01T20:41:44.772Z,6.03
2019-06-01T20:44:16.817Z,8.97
2019-06-01T20:46:48.024Z,5.67
2019-06-01T20:49:18.812Z,7.33
2019-06-01T20:51:49.654Z,9.40
2019-06-01T20:54:19.612Z,6.43
2019-06-01T20:56:51.349Z,5.67
2019-06-01T20:59:23.465Z,5.00
2019-06-01T21:01:52.406Z,6.20
2019-06-01T21:04:24.310Z,11.67
2019-06-01T21:06:54.409Z,7.77
2019-06-01T21:09:26.277Z,6.77
2019-06-01T21:12:01.486Z,6.53
2019-06-01T21:14:34.715Z,9.47
2019-06-01T21:17:06.116Z,7.17
2019-06-01T21:19:42.672Z,6.57
2019-06-01T21:22:14.368Z,7.37
2019-06-01T21:24:44.860Z,6.30
2019-06-01T21:27:20.636Z,6.07
2019-06-01T21:29:51.579Z,6.60
2019-06-01T21:32:25.695Z,6.50
2019-06-01T21:34:56.664Z,11.97
2019-06-01T21:37:26.507Z,22.37
2019-06-01T21:39:56.530Z,9.53
2019-06-01T21:42:26.160Z,6.20
2019-06-01T21:44:54.926Z,4.80
2019-06-01T21:47:23.940Z,4.53
2019-06-01T21:49:52.766Z,5.10
2019-06-01T21:52:26.402Z,4.40
2019-06-01T21:55:03.989Z,5.03
2019-06-01T21:57:35.355Z,6.37
2019-06-01T22:00:06.835Z,4.47
2019-06-01T22:02:37.944Z,5.70
2019-06-01T22:05:09.155Z,5.60
2019-06-01T22:07:38.975Z,5.30
2019-06-01T22:10:17.144Z,5.00
2019-06-01T22:13:17.671Z,4.50
2019-06-01T22:15:34.442Z,4.17
2019-06-01T22:18:08.754Z,3.83
2019-06-01T22:20:39.698Z,3.93
2019-06-01T22:23:12.047Z,3.63
2019-06-01T22:26:46.346Z,4.00
2019-06-01T22:29:16.134Z,3.47
2019-06-01T22:31:47.123Z,3.63
2019-06-01T22:34:17.042Z,3.47
2019-06-01T22:36:47.672Z,3.53
2019-06-01T22:39:19.451Z,4.33
2019-06-01T22:41:48.022Z,4.00
2019-06-01T22:44:22.061Z,3.87
2019-06-01T22:46:53.767Z,3.80
2019-06-01T22:49:27.356Z,3.73
2019-06-01T22:51:57.033Z,4.33
2019-06-01T22:54:27.424Z,3.90
2019-06-01T22:57:01.059Z,4.00
2019-06-01T22:59:30.849Z,4.33
2019-06-01T23:02:04.649Z,4.40
2019-06-01T23:04:34.683Z,4.53
2019-06-01T23:07:05.761Z,8.17
2019-06-01T23:09:36.677Z,4.83
2019-06-01T23:12:07.174Z,4.83
2019-06-01T23:14:37.200Z,4.97
2019-06-01T23:17:06.848Z,5.97
2019-06-01T23:19:36.825Z,5.00
2019-06-01T23:22:08.475Z,5.47
2019-06-01T23:24:38.722Z,4.77
2019-06-01T23:27:08.738Z,6.13
2019-06-01T23:29:38.362Z,5.60
2019-06-01T23:32:08.333Z,5.20
2019-06-01T23:34:38.092Z,5.40
2019-06-01T23:37:09.084Z,5.73
2019-06-01T23:39:41.153Z,5.87
2019-06-01T23:42:13.744Z,5.60
2019-06-01T23:44:43.654Z,6.17
2019-06-01T23:47:13.047Z,5.97
2019-06-01T23:49:43.008Z,6.00
2019-06-01T23:52:16.893Z,6.07
2019-06-01T23:54:46.589Z,6.60
2019-06-01T23:57:18.004Z,6.50
2019-06-01T23:59:47.213Z,6.90
